createdAt,value
2024-04-14T00:00:55.066Z,96464.06
2024-04-14T00:01:56.785Z,96457.28
2024-04-14T00:02:58.507Z,96467.38
2024-04-14T00:04:01.144Z,96457.50
2024-04-14T00:05:03.079Z,96460.25
2024-04-14T00:06:05.157Z,96453.16
2024-04-14T00:07:06.903Z,96452.00
2024-04-14T00:08:08.679Z,96447.66
2024-04-14T00:09:11.655Z,96454.75
2024-04-14T00:10:13.391Z,96445.94
2024-04-14T00:11:15.152Z,96451.44
2024-04-14T00:12:16.896Z,96442.38
2024-04-14T00:13:18.600Z,96439.16
2024-04-14T00:14:20.366Z,96443.84
2024-04-14T00:15:22.105Z,96444.09
2024-04-14T00:16:23.824Z,96442.16
2024-04-14T00:17:25.519Z,96452.69
2024-04-14T00:18:27.324Z,96445.59
2024-04-14T00:19:29.523Z,96440.75
2024-04-14T00:20:31.666Z,96445.47
2024-04-14T00:21:33.991Z,96440.63
2024-04-14T00:22:35.767Z,96435.78
2024-04-14T00:23:37.828Z,96434.19
2024-04-14T00:24:39.633Z,96436.13
2024-04-14T00:25:41.355Z,96436.50
2024-04-14T00:26:43.179Z,96434.09
2024-04-14T00:27:45.027Z,96439.59
2024-04-14T00:28:46.735Z,96434.09
2024-04-14T00:29:48.607Z,96431.34
2024-04-14T00:30:50.386Z,96434.75
2024-04-14T00:31:52.146Z,96435.22
2024-04-14T00:32:54.639Z,96442.34
2024-04-14T00:33:56.436Z,96431.66
2024-04-14T00:34:58.312Z,96434.09
2024-04-14T00:36:00.171Z,96425.69
2024-04-14T00:37:01.944Z,96424.44
2024-04-14T00:38:03.751Z,96424.09
2024-04-14T00:39:05.466Z,96426.03
2024-04-14T00:40:07.794Z,96420.53
2024-04-14T00:41:09.523Z,96427.44
2024-04-14T00:42:11.407Z,96424.22
2024-04-14T00:43:16.352Z,96418.56
2024-04-14T00:44:18.269Z,96429.38
2024-04-14T00:45:19.978Z,96423.28
2024-04-14T00:46:21.713Z,96428.78
2024-04-14T00:47:23.515Z,96426.03
2024-04-14T00:48:25.339Z,96428.78
2024-04-14T00:49:27.179Z,96429.25
2024-04-14T00:50:29.004Z,96432.81
2024-04-14T00:51:30.750Z,96426.16
2024-04-14T00:52:32.579Z,96430.06
2024-04-14T00:53:34.576Z,96421.47
2024-04-14T00:54:37.861Z,96424.09
2024-04-14T00:55:41.440Z,96425.34
2024-04-14T00:56:43.347Z,96421.47
2024-04-14T00:57:45.091Z,96421.34
2024-04-14T00:58:48.280Z,96427.19
2024-04-14T00:59:50.753Z,96427.66
2024-04-14T01:00:52.658Z,96425.69
2024-04-14T01:01:54.523Z,96430.06
2024-04-14T01:02:56.964Z,96428.34
2024-04-14T01:03:58.758Z,96424.44
2024-04-14T01:05:00.684Z,96433.50
2024-04-14T01:06:02.508Z,96426.75
2024-04-14T01:07:04.539Z,96432.25
2024-04-14T01:08:06.768Z,96428.44
2024-04-14T01:09:10.044Z,96430.41
2024-04-14T01:10:12.079Z,96434.75
2024-04-14T01:11:13.830Z,96424.56
2024-04-14T01:12:15.918Z,96427.97
2024-04-14T01:13:17.670Z,96427.56
2024-04-14T01:14:19.365Z,96439.38
2024-04-14T01:15:21.369Z,96429.94
2024-04-14T01:16:23.083Z,96428.34
2024-04-14T01:17:24.886Z,96437.06
2024-04-14T01:18:26.800Z,96432.25
2024-04-14T01:19:29.428Z,96423.06
2024-04-14T01:20:31.256Z,96423.41
2024-04-14T01:21:34.038Z,96429.03
2024-04-14T01:22:35.822Z,96429.84
2024-04-14T01:23:38.527Z,96436.97
2024-04-14T01:24:40.290Z,96434.53
2024-04-14T01:25:41.998Z,96431.44
2024-04-14T01:26:43.832Z,96431.44
2024-04-14T01:27:47.002Z,96433.88
2024-04-14T01:28:48.994Z,96436.25
2024-04-14T01:29:50.681Z,96432.25
2024-04-14T01:30:53.275Z,96433.88
2024-04-14T01:31:55.098Z,96429.84
2024-04-14T01:32:57.226Z,96431.31
2024-04-14T01:33:58.975Z,96434.88
2024-04-14T01:35:04.575Z,96433.16
2024-04-14T01:36:06.651Z,96431.56
2024-04-14T01:37:08.398Z,96430.28
2024-04-14T01:38:18.902Z,96420.75
2024-04-14T01:39:24.122Z,96429.25
2024-04-14T01:40:25.867Z,96427.75
2024-04-14T01:41:27.594Z,96433.63
2024-04-14T01:42:30.951Z,96427.19
2024-04-14T01:43:32.699Z,96435.44
2024-04-14T01:44:34.472Z,96429.34
2024-04-14T01:45:36.237Z,96428.09
2024-04-14T01:46:38.021Z,96425.19
2024-04-14T01:47:39.805Z,96425.09
2024-04-14T01:48:41.593Z,96425.44
2024-04-14T01:49:43.364Z,96428.84
2024-04-14T01:50:45.065Z,96419.69
2024-04-14T01:51:46.827Z,96429.44
2024-04-14T01:52:48.572Z,96412.78
2024-04-14T01:53:50.315Z,96415.91
2024-04-14T01:54:52.180Z,96423.69
2024-04-14T01:55:53.982Z,96427.56
2024-04-14T01:56:55.655Z,96424.69
2024-04-14T01:57:58.890Z,96427.78
2024-04-14T01:59:00.695Z,96420.88
2024-04-14T02:00:02.843Z,96423.66
2024-04-14T02:01:13.579Z,96424.78
2024-04-14T02:02:15.455Z,96421.94
2024-04-14T02:03:17.230Z,96415.16
2024-04-14T02:04:19.220Z,96413.88
2024-04-14T02:05:21.104Z,96420.84
2024-04-14T02:06:22.962Z,96417.66
2024-04-14T02:07:24.811Z,96413.63
2024-04-14T02:08:27.340Z,96416.72
2024-04-14T02:09:29.032Z,96414.28
2024-04-14T02:10:30.809Z,96411.88
2024-04-14T02:11:32.553Z,96415.78
2024-04-14T02:12:34.275Z,96418.53
2024-04-14T02:13:36.618Z,96422.44
2024-04-14T02:14:38.469Z,96420.00
2024-04-14T02:15:41.334Z,96414.84
2024-04-14T02:16:43.068Z,96414.38
2024-04-14T02:17:46.445Z,96415.50
2024-04-14T02:18:48.457Z,96410.72
2024-04-14T02:19:50.224Z,96418.00
2024-04-14T02:20:51.983Z,96414.47
2024-04-14T02:21:53.915Z,96416.69
2024-04-14T02:22:55.713Z,96421.06
2024-04-14T02:23:57.719Z,96409.97
2024-04-14T02:24:59.574Z,96421.41
2024-04-14T02:26:02.102Z,96419.81
2024-04-14T02:27:04.129Z,96414.31
2024-04-14T02:28:06.148Z,96419.44
2024-04-14T02:29:08.356Z,96419.81
2024-04-14T02:30:11.169Z,96420.47
2024-04-14T02:31:12.919Z,96417.25
2024-04-14T02:32:14.636Z,96416.44
2024-04-14T02:33:17.262Z,96418.88
2024-04-14T02:34:18.987Z,96426.63
2024-04-14T02:35:20.739Z,96419.53
2024-04-14T02:36:23.232Z,96423.09
2024-04-14T02:37:24.964Z,96424.59
2024-04-14T02:38:27.080Z,96432.03
2024-04-14T02:39:28.859Z,96430.28
2024-04-14T02:40:30.571Z,96418.47
2024-04-14T02:41:32.276Z,96423.03
2024-04-14T02:42:36.299Z,96415.78
2024-04-14T02:43:40.040Z,96419.69
2024-04-14T02:44:41.738Z,96421.19
2024-04-14T02:45:43.445Z,96418.75
2024-04-14T02:46:45.426Z,96415.06
2024-04-14T02:47:47.316Z,96420.56
2024-04-14T02:48:49.896Z,96417.81
2024-04-14T02:49:53.157Z,96409.88
2024-04-14T02:50:55.185Z,96412.19
2024-04-14T02:51:57.599Z,96412.53
2024-04-14T02:52:59.441Z,96414.78
2024-04-14T02:54:01.260Z,96412.03
2024-04-14T02:55:02.953Z,96413.41
2024-04-14T02:56:05.113Z,96408.56
2024-04-14T02:57:07.426Z,96403.53
2024-04-14T02:58:09.637Z,96404.34
2024-04-14T02:59:11.394Z,96400.31
2024-04-14T03:00:13.117Z,96406.13
2024-04-14T03:01:18.262Z,96404.19
2024-04-14T03:02:20.085Z,96408.88
2024-04-14T03:03:22.188Z,96400.50
2024-04-14T03:04:26.094Z,96398.44
2024-04-14T03:05:28.281Z,96408.94
2024-04-14T03:06:29.990Z,96397.97
2024-04-14T03:07:31.752Z,96398.75
2024-04-14T03:08:33.659Z,96407.81
2024-04-14T03:09:35.490Z,96412.81
2024-04-14T03:10:37.706Z,96405.72
2024-04-14T03:11:39.416Z,96406.53
2024-04-14T03:12:41.406Z,96402.06
2024-04-14T03:13:43.093Z,96404.00
2024-04-14T03:14:44.827Z,96409.00
2024-04-14T03:15:46.598Z,96401.56
2024-04-14T03:16:49.063Z,96404.66
2024-04-14T03:17:50.915Z,96403.84
2024-04-14T03:18:52.652Z,96408.53
2024-04-14T03:19:54.867Z,96406.59
2024-04-14T03:20:57.037Z,96403.03
2024-04-14T03:21:58.780Z,96404.50
2024-04-14T03:23:00.620Z,96407.59
2024-04-14T03:24:03.284Z,96403.38
2024-04-14T03:25:05.296Z,96402.56
2024-04-14T03:26:07.246Z,96403.72
2024-04-14T03:27:08.907Z,96405.66
2024-04-14T03:28:10.909Z,96401.31
2024-04-14T03:29:12.720Z,96407.59
2024-04-14T03:30:14.480Z,96400.50
2024-04-14T03:31:16.274Z,96401.97
2024-04-14T03:32:18.085Z,96401.97
2024-04-14T03:33:20.177Z,96399.88
2024-04-14T03:34:21.942Z,96401.00
2024-04-14T03:35:23.664Z,96391.50
2024-04-14T03:36:25.376Z,96400.56
2024-04-14T03:37:27.122Z,96394.56
2024-04-14T03:38:29.162Z,96398.47
2024-04-14T03:39:31.084Z,96408.63
2024-04-14T03:40:34.918Z,96405.41
2024-04-14T03:41:36.630Z,96408.63
2024-04-14T03:42:38.461Z,96410.09
2024-04-14T03:43:40.260Z,96406.53
2024-04-14T03:44:41.982Z,96407.72
2024-04-14T03:45:44.856Z,96418.69
2024-04-14T03:46:46.574Z,96414.66
2024-04-14T03:47:48.649Z,96404.81
2024-04-14T03:48:51.040Z,96409.50
2024-04-14T03:49:52.791Z,96416.91
2024-04-14T03:50:54.544Z,96416.44
2024-04-14T03:51:56.321Z,96408.22
2024-04-14T03:52:58.102Z,96414.03
2024-04-14T03:53:59.766Z,96411.28
2024-04-14T03:55:01.450Z,96403.41
2024-04-14T03:56:03.762Z,96413.56
2024-04-14T03:57:05.562Z,96413.56
2024-04-14T03:58:07.374Z,96412.28
2024-04-14T03:59:10.356Z,96406.31
2024-04-14T04:00:12.384Z,96412.94
2024-04-14T04:01:18.478Z,96401.03
2024-04-14T04:02:20.316Z,96401.03
2024-04-14T04:03:22.055Z,96406.84
2024-04-14T04:04:23.849Z,96399.41
2024-04-14T04:05:25.946Z,96402.97
2024-04-14T04:06:27.717Z,96408.28
2024-04-14T04:07:29.444Z,96398.13
2024-04-14T04:08:31.146Z,96406.34
2024-04-14T04:09:32.941Z,96403.13
2024-04-14T04:10:34.641Z,96400.25
2024-04-14T04:11:36.646Z,96408.16
2024-04-14T04:12:38.475Z,96403.47
2024-04-14T04:13:40.273Z,96406.34
2024-04-14T04:14:41.974Z,96402.69
2024-04-14T04:15:43.856Z,96403.31
2024-04-14T04:16:47.159Z,96407.69
2024-04-14T04:17:49.168Z,96405.25
2024-04-14T04:18:51.096Z,96399.28
2024-04-14T04:19:53.345Z,96409.63
2024-04-14T04:20:56.387Z,96412.69
2024-04-14T04:21:58.164Z,96408.34
2024-04-14T04:22:59.900Z,96408.66
2024-04-14T04:24:01.863Z,96408.34
2024-04-14T04:25:03.780Z,96407.03
2024-04-14T04:26:05.534Z,96406.25
2024-04-14T04:27:07.251Z,96418.38
2024-04-14T04:28:08.928Z,96419.50
2024-04-14T04:29:10.653Z,96410.16
2024-04-14T04:30:12.460Z,96415.94
2024-04-14T04:31:14.367Z,96406.09
2024-04-14T04:32:18.731Z,96409.97
2024-04-14T04:33:21.254Z,96401.28
2024-04-14T04:34:23.651Z,96413.84
2024-04-14T04:35:25.411Z,96396.91
2024-04-14T04:36:27.221Z,96400.78
2024-04-14T04:37:28.924Z,96403.53
2024-04-14T04:38:30.679Z,96402.88
2024-04-14T04:39:32.422Z,96406.75
2024-04-14T04:40:34.271Z,96403.22
2024-04-14T04:41:35.970Z,96404.34
2024-04-14T04:42:37.779Z,96407.41
2024-04-14T04:43:43.583Z,96405.78
2024-04-14T04:44:47.251Z,96399.19
2024-04-14T04:45:49.367Z,96409.03
2024-04-14T04:46:51.116Z,96405.47
2024-04-14T04:47:52.913Z,96397.56
2024-04-14T04:48:57.878Z,96405.78
2024-04-14T04:49:59.699Z,96401.44
2024-04-14T04:51:01.436Z,96403.69
2024-04-14T04:52:03.309Z,96405.78
2024-04-14T04:53:05.211Z,96403.53
2024-04-14T04:54:06.927Z,96399.50
2024-04-14T04:55:08.683Z,96400.78
2024-04-14T04:56:10.391Z,96410.63
2024-04-14T04:57:12.124Z,96404.00
2024-04-14T04:58:14.929Z,96406.09
2024-04-14T04:59:16.769Z,96403.38
2024-04-14T05:00:18.557Z,96412.53
2024-04-14T05:01:20.294Z,96405.91
2024-04-14T05:02:23.180Z,96405.91
2024-04-14T05:03:28.625Z,96417.38
2024-04-14T05:04:34.168Z,96416.25
2024-04-14T05:05:35.836Z,96416.72
2024-04-14T05:06:37.536Z,96416.84
2024-04-14T05:07:39.434Z,96418.13
2024-04-14T05:08:41.545Z,96412.44
2024-04-14T05:09:43.384Z,96411.00
2024-04-14T05:10:45.158Z,96409.53
2024-04-14T05:11:49.720Z,96418.38
2024-04-14T05:12:51.476Z,96418.84
2024-04-14T05:13:53.267Z,96417.41
2024-04-14T05:14:54.996Z,96423.03
2024-04-14T05:15:56.834Z,96416.41
2024-04-14T05:16:58.586Z,96420.75
2024-04-14T05:18:00.420Z,96425.25
2024-04-14T05:19:02.338Z,96428.47
2024-04-14T05:20:04.345Z,96424.56
2024-04-14T05:21:06.326Z,96427.16
2024-04-14T05:22:08.163Z,96422.94
2024-04-14T05:23:10.186Z,96423.53
2024-04-14T05:24:12.661Z,96422.09
2024-04-14T05:25:14.327Z,96428.19
2024-04-14T05:26:16.082Z,96417.34
2024-04-14T05:27:17.935Z,96421.00
2024-04-14T05:28:20.023Z,96418.88
2024-04-14T05:29:21.738Z,96421.44
2024-04-14T05:30:23.480Z,96421.69
2024-04-14T05:31:25.508Z,96427.00
2024-04-14T05:32:27.343Z,96417.41
2024-04-14T05:33:29.185Z,96428.66
2024-04-14T05:34:30.862Z,96425.72
2024-04-14T05:35:32.667Z,96421.13
2024-04-14T05:36:34.384Z,96420.16
2024-04-14T05:37:36.132Z,96426.09
2024-04-14T05:38:38.057Z,96426.06
2024-04-14T05:39:40.031Z,96423.09
2024-04-14T05:40:41.731Z,96417.25
2024-04-14T05:41:44.126Z,96420.50
2024-04-14T05:42:45.848Z,96425.44
2024-04-14T05:43:47.605Z,96430.72
2024-04-14T05:44:50.695Z,96427.75
2024-04-14T05:45:52.509Z,96421.56
2024-04-14T05:46:55.054Z,96433.97
2024-04-14T05:47:57.094Z,96434.09
2024-04-14T05:49:17.504Z,96433.41
2024-04-14T05:50:20.680Z,96432.41
2024-04-14T05:51:22.489Z,96430.91
2024-04-14T05:52:24.205Z,96432.66
2024-04-14T05:53:25.940Z,96423.34
2024-04-14T05:54:27.656Z,96423.59
2024-04-14T05:55:29.402Z,96425.81
2024-04-14T05:56:31.090Z,96422.81
2024-04-14T05:57:32.811Z,96414.44
2024-04-14T05:58:34.665Z,96409.88
2024-04-14T05:59:36.392Z,96421.09
2024-04-14T06:00:38.429Z,96415.00
2024-04-14T06:01:40.442Z,96418.78
2024-04-14T06:02:42.188Z,96415.81
2024-04-14T06:03:44.037Z,96414.81
2024-04-14T06:04:45.840Z,96410.56
2024-04-14T06:05:50.814Z,96409.97
2024-04-14T06:06:53.880Z,96413.66
2024-04-14T06:07:55.662Z,96409.50
2024-04-14T06:08:57.371Z,96416.16
2024-04-14T06:09:59.127Z,96415.47
2024-04-14T06:11:00.936Z,96418.09
2024-04-14T06:12:02.694Z,96414.19
2024-04-14T06:13:04.602Z,96416.81
2024-04-14T06:14:06.404Z,96416.09
2024-04-14T06:15:08.126Z,96415.16
2024-04-14T06:16:10.000Z,96408.94
2024-04-14T06:17:11.746Z,96413.41
2024-04-14T06:18:13.510Z,96415.13
2024-04-14T06:19:15.737Z,96407.75
2024-04-14T06:20:17.470Z,96408.63
2024-04-14T06:21:19.239Z,96420.25
2024-04-14T06:22:20.953Z,96405.72
2024-04-14T06:23:22.639Z,96411.47
2024-04-14T06:24:24.397Z,96410.03
2024-04-14T06:25:26.252Z,96413.00
2024-04-14T06:26:28.053Z,96411.59
2024-04-14T06:27:29.806Z,96417.69
2024-04-14T06:28:34.140Z,96411.66
2024-04-14T06:29:36.634Z,96414.13
2024-04-14T06:30:38.525Z,96402.13
2024-04-14T06:31:40.344Z,96416.19
2024-04-14T06:32:42.991Z,96408.91
2024-04-14T06:33:44.935Z,96409.06
2024-04-14T06:34:46.713Z,96409.63
2024-04-14T06:35:48.460Z,96420.84
2024-04-14T06:36:50.245Z,96419.84
2024-04-14T06:37:52.005Z,96410.50
2024-04-14T06:38:55.450Z,96415.84
2024-04-14T06:39:57.282Z,96411.28
2024-04-14T06:40:59.624Z,96402.69
2024-04-14T06:42:03.666Z,96410.81
2024-04-14T06:43:06.058Z,96409.44
2024-04-14T06:44:07.701Z,96408.44
2024-04-14T06:45:09.453Z,96406.56
2024-04-14T06:46:11.173Z,96413.41
2024-04-14T06:47:12.896Z,96404.53
2024-04-14T06:48:16.536Z,96413.78
2024-04-14T06:49:18.375Z,96406.00
2024-04-14T06:50:20.104Z,96412.13
2024-04-14T06:51:21.787Z,96407.09
2024-04-14T06:52:23.620Z,96411.97
2024-04-14T06:53:25.399Z,96412.50
2024-04-14T06:54:27.230Z,96413.41
2024-04-14T06:55:30.657Z,96415.63
2024-04-14T06:56:34.096Z,96410.66
2024-04-14T06:57:35.733Z,96406.41
2024-04-14T06:58:37.676Z,96412.88
2024-04-14T06:59:39.490Z,96411.09
2024-04-14T07:00:43.940Z,96411.66
2024-04-14T07:01:46.136Z,96405.44
2024-04-14T07:02:48.075Z,96413.13
2024-04-14T07:03:49.971Z,96412.88
2024-04-14T07:04:51.835Z,96418.16
2024-04-14T07:05:53.604Z,96415.94
2024-04-14T07:06:55.447Z,96416.88
2024-04-14T07:07:57.204Z,96411.38
2024-04-14T07:08:58.902Z,96409.13
2024-04-14T07:10:00.807Z,96413.16
2024-04-14T07:11:02.565Z,96409.69
2024-04-14T07:12:04.375Z,96402.31
2024-04-14T07:13:06.194Z,96404.44
2024-04-14T07:14:07.991Z,96405.75
2024-04-14T07:15:09.739Z,96402.72
2024-04-14T07:16:11.488Z,96400.84
2024-04-14T07:17:13.211Z,96397.81
2024-04-14T07:18:16.509Z,96401.97
2024-04-14T07:19:18.338Z,96404.09
2024-04-14T07:20:20.998Z,96403.78
2024-04-14T07:21:22.713Z,96405.88
2024-04-14T07:22:24.704Z,96406.75
2024-04-14T07:23:28.853Z,96411.22
2024-04-14T07:24:30.660Z,96410.13
2024-04-14T07:25:32.395Z,96411.78
2024-04-14T07:26:34.402Z,96409.84
2024-04-14T07:27:36.159Z,96405.97
2024-04-14T07:28:38.686Z,96402.91
2024-04-14T07:29:40.601Z,96404.94
2024-04-14T07:30:44.894Z,96400.16
2024-04-14T07:31:46.699Z,96404.97
2024-04-14T07:32:48.522Z,96404.25
2024-04-14T07:33:50.343Z,96395.09
2024-04-14T07:34:52.034Z,96392.34
2024-04-14T07:35:53.787Z,96406.34
2024-04-14T07:36:57.531Z,96402.78
2024-04-14T07:37:59.316Z,96398.03
2024-04-14T07:39:01.074Z,96404.44
2024-04-14T07:40:02.785Z,96399.72
2024-04-14T07:41:04.685Z,96399.81
2024-04-14T07:42:06.553Z,96391.91
2024-04-14T07:43:09.110Z,96397.50
2024-04-14T07:44:10.891Z,96401.13
2024-04-14T07:45:12.629Z,96403.13
2024-04-14T07:46:15.031Z,96404.38
2024-04-14T07:47:17.268Z,96409.63
2024-04-14T07:48:19.075Z,96404.03
2024-04-14T07:49:20.861Z,96405.28
2024-04-14T07:50:22.595Z,96403.31
2024-04-14T07:51:24.362Z,96404.94
2024-04-14T07:52:26.045Z,96399.75
2024-04-14T07:53:27.802Z,96406.16
2024-04-14T07:54:29.603Z,96411.31
2024-04-14T07:55:31.404Z,96403.34
2024-04-14T07:56:33.156Z,96407.72
2024-04-14T07:57:34.943Z,96400.16
2024-04-14T07:58:36.698Z,96405.75
2024-04-14T07:59:38.561Z,96404.50
2024-04-14T08:00:40.420Z,96402.53
2024-04-14T08:01:42.205Z,96408.09
2024-04-14T08:02:44.198Z,96412.09
2024-04-14T08:03:51.127Z,96402.50
2024-04-14T08:04:58.450Z,96401.72
2024-04-14T08:06:00.186Z,96405.25
2024-04-14T08:07:02.001Z,96401.25
2024-04-14T08:08:03.910Z,96403.59
2024-04-14T08:09:05.630Z,96408.38
2024-04-14T08:10:07.475Z,96404.78
2024-04-14T08:11:10.151Z,96401.53
2024-04-14T08:12:13.173Z,96409.88
2024-04-14T08:13:15.168Z,96400.59
2024-04-14T08:14:16.857Z,96398.94
2024-04-14T08:15:18.593Z,96404.88
2024-04-14T08:16:20.399Z,96406.41
2024-04-14T08:17:22.251Z,96405.22
2024-04-14T08:18:24.858Z,96407.16
2024-04-14T08:19:26.666Z,96403.91
2024-04-14T08:20:28.357Z,96406.25
2024-04-14T08:21:30.113Z,96405.75
2024-04-14T08:22:31.835Z,96404.50
2024-04-14T08:23:33.564Z,96406.50
2024-04-14T08:24:35.643Z,96409.28
2024-04-14T08:25:40.872Z,96397.53
2024-04-14T08:26:42.680Z,96401.44
2024-04-14T08:27:44.438Z,96396.59
2024-04-14T08:28:46.215Z,96398.03
2024-04-14T08:29:47.990Z,96403.50
2024-04-14T08:30:49.825Z,96400.22
2024-04-14T08:31:51.654Z,96403.78
2024-04-14T08:32:53.455Z,96399.25
2024-04-14T08:33:55.358Z,96403.25
2024-04-14T08:34:57.283Z,96407.56
2024-04-14T08:35:59.025Z,96405.47
2024-04-14T08:37:00.884Z,96402.25
2024-04-14T08:38:02.617Z,96403.16
2024-04-14T08:39:04.635Z,96403.88
2024-04-14T08:40:06.952Z,96406.69
2024-04-14T08:41:08.773Z,96402.31
2024-04-14T08:42:11.643Z,96398.97
2024-04-14T08:43:13.350Z,96404.06
2024-04-14T08:44:15.579Z,96405.66
2024-04-14T08:45:18.108Z,96400.38
2024-04-14T08:46:22.465Z,96398.63
2024-04-14T08:47:24.863Z,96400.56
2024-04-14T08:48:26.986Z,96408.81
2024-04-14T08:49:29.739Z,96402.97
2024-04-14T08:50:31.677Z,96403.22
2024-04-14T08:51:33.451Z,96403.81
2024-04-14T08:52:35.859Z,96405.69
2024-04-14T08:53:40.079Z,96400.88
2024-04-14T08:54:41.826Z,96402.47
2024-04-14T08:55:43.671Z,96395.91
2024-04-14T08:56:46.226Z,96403.50
2024-04-14T08:57:48.550Z,96398.72
2024-04-14T08:58:57.835Z,96400.91
2024-04-14T09:00:00.415Z,96406.50
2024-04-14T09:01:03.583Z,96395.91
2024-04-14T09:02:11.393Z,96399.94
2024-04-14T09:03:13.287Z,96397.50
2024-04-14T09:04:16.742Z,96396.28
2024-04-14T09:05:19.211Z,96397.59
2024-04-14T09:06:21.364Z,96400.88
2024-04-14T09:07:23.023Z,96401.63
2024-04-14T09:08:26.391Z,96397.59
2024-04-14T09:09:28.272Z,96404.06
2024-04-14T09:10:30.174Z,96399.78
2024-04-14T09:11:31.932Z,96402.97
2024-04-14T09:12:33.817Z,96398.09
2024-04-14T09:13:35.597Z,96400.38
2024-04-14T09:14:37.318Z,96397.47
2024-04-14T09:15:41.664Z,96387.78
2024-04-14T09:16:43.607Z,96382.06
2024-04-14T09:17:45.368Z,96393.72
2024-04-14T09:18:47.135Z,96389.69
2024-04-14T09:19:48.853Z,96384.69
2024-04-14T09:20:51.065Z,96393.56
2024-04-14T09:21:52.706Z,96389.22
2024-04-14T09:22:55.032Z,96387.03
2024-04-14T09:23:57.640Z,96383.56
2024-04-14T09:24:59.688Z,96388.38
2024-04-14T09:26:05.924Z,96382.94
2024-04-14T09:27:07.752Z,96380.69
2024-04-14T09:28:11.881Z,96380.63
2024-04-14T09:29:13.737Z,96383.44
2024-04-14T09:30:19.477Z,96380.63
2024-04-14T09:31:23.890Z,96373.09
2024-04-14T09:32:29.048Z,96371.88
2024-04-14T09:33:33.095Z,96381.91
2024-04-14T09:34:39.377Z,96376.16
2024-04-14T09:35:41.502Z,96372.38
2024-04-14T09:36:43.147Z,96371.94
2024-04-14T09:37:45.368Z,96376.88
2024-04-14T09:38:46.954Z,96375.28
2024-04-14T09:39:51.049Z,96371.50
2024-04-14T09:40:53.760Z,96370.88
2024-04-14T09:41:58.795Z,96372.31
2024-04-14T09:43:01.533Z,96371.69
2024-04-14T09:44:03.744Z,96368.78
2024-04-14T09:45:05.856Z,96366.13
2024-04-14T09:46:07.787Z,96377.63
2024-04-14T09:47:09.961Z,96370.31
2024-04-14T09:48:11.618Z,96368.22
2024-04-14T09:49:14.494Z,96367.38
2024-04-14T09:50:17.067Z,96371.34
2024-04-14T09:51:20.806Z,96362.09
2024-04-14T09:52:23.754Z,96368.38
2024-04-14T09:53:31.889Z,96363.97
2024-04-14T09:54:33.570Z,96362.53
2024-04-14T09:55:38.222Z,96365.69
2024-04-14T09:56:41.620Z,96365.88
2024-04-14T09:57:44.447Z,96371.34
2024-04-14T09:58:46.182Z,96364.47
2024-04-14T09:59:48.101Z,96367.47
2024-04-14T10:00:50.183Z,96369.78
2024-04-14T10:01:52.525Z,96364.59
2024-04-14T10:02:57.971Z,96362.56
2024-04-14T10:04:02.563Z,96362.44
2024-04-14T10:05:06.166Z,96368.91
2024-04-14T10:06:09.000Z,96365.28
2024-04-14T10:07:11.870Z,96357.25
2024-04-14T10:08:14.579Z,96354.38
2024-04-14T10:09:18.021Z,96363.84
2024-04-14T10:10:20.770Z,96363.09
2024-04-14T10:11:24.580Z,96364.59
2024-04-14T10:12:26.507Z,96357.19
2024-04-14T10:13:28.278Z,96365.56
2024-04-14T10:14:40.800Z,96361.00
2024-04-14T10:15:46.577Z,96365.03
2024-04-14T10:16:57.881Z,96360.78
2024-04-14T10:18:19.010Z,96362.09
2024-04-14T10:19:21.286Z,96354.28
2024-04-14T10:20:23.853Z,96359.28
2024-04-14T10:21:25.699Z,96350.38
2024-04-14T10:22:31.815Z,96349.50
2024-04-14T10:23:33.557Z,96349.84
2024-04-14T10:24:48.190Z,96353.63
2024-04-14T10:25:51.025Z,96347.41
2024-04-14T10:26:52.858Z,96348.78
2024-04-14T10:27:54.923Z,96342.19
2024-04-14T10:28:57.070Z,96345.72
2024-04-14T10:29:59.326Z,96346.06
2024-04-14T10:31:03.081Z,96338.25
2024-04-14T10:32:05.337Z,96343.22
2024-04-14T10:33:09.012Z,96348.19
2024-04-14T10:34:12.582Z,96339.16
2024-04-14T10:35:15.723Z,96337.56
2024-04-14T10:36:25.555Z,96340.63
2024-04-14T10:37:30.672Z,96337.66
2024-04-14T10:38:36.118Z,96332.25
2024-04-14T10:39:41.448Z,96335.09
2024-04-14T10:40:45.183Z,96332.03
2024-04-14T10:41:46.965Z,96327.63
2024-04-14T10:42:48.785Z,96331.25
2024-04-14T10:43:50.629Z,96323.91
2024-04-14T10:44:52.571Z,96326.59
2024-04-14T10:45:54.386Z,96325.50
2024-04-14T10:46:56.372Z,96324.78
2024-04-14T10:47:58.934Z,96324.66
2024-04-14T10:49:01.289Z,96327.56
2024-04-14T10:50:03.277Z,96331.28
2024-04-14T10:51:05.103Z,96326.50
2024-04-14T10:52:07.150Z,96321.47
2024-04-14T10:53:09.744Z,96309.25
2024-04-14T10:54:11.557Z,96314.31
2024-04-14T10:55:13.376Z,96318.78
2024-04-14T10:56:15.227Z,96321.75
2024-04-14T10:57:16.989Z,96312.78
2024-04-14T10:58:18.781Z,96319.72
2024-04-14T10:59:20.596Z,96312.22
2024-04-14T11:00:22.330Z,96307.47
2024-04-14T11:01:25.057Z,96306.34
2024-04-14T11:02:26.910Z,96307.28
2024-04-14T11:03:28.799Z,96312.41
2024-04-14T11:04:35.480Z,96310.06
2024-04-14T11:05:37.618Z,96307.41
2024-04-14T11:06:39.473Z,96302.72
2024-04-14T11:07:41.415Z,96302.66
2024-04-14T11:08:43.698Z,96296.13
2024-04-14T11:09:45.602Z,96294.69
2024-04-14T11:10:48.281Z,96309.09
2024-04-14T11:11:50.773Z,96302.31
2024-04-14T11:12:52.576Z,96292.72
2024-04-14T11:13:54.458Z,96292.03
2024-04-14T11:14:56.341Z,96296.22
2024-04-14T11:15:58.845Z,96294.16
2024-04-14T11:17:10.639Z,96290.75
2024-04-14T11:18:12.653Z,96281.03
2024-04-14T11:19:14.887Z,96284.53
2024-04-14T11:20:16.743Z,96290.94
2024-04-14T11:21:20.140Z,96278.53
2024-04-14T11:22:21.905Z,96280.53
2024-04-14T11:23:24.014Z,96282.41
2024-04-14T11:24:25.781Z,96275.94
2024-04-14T11:25:32.184Z,96274.16
2024-04-14T11:26:33.907Z,96277.63
2024-04-14T11:27:35.814Z,96277.72
2024-04-14T11:28:37.561Z,96267.72
2024-04-14T11:29:39.318Z,96274.22
2024-04-14T11:30:43.113Z,96278.06
2024-04-14T11:31:45.145Z,96276.56
2024-04-14T11:32:47.075Z,96278.78
2024-04-14T11:33:55.313Z,96271.53
2024-04-14T11:35:00.945Z,96271.06
2024-04-14T11:36:02.727Z,96273.63
2024-04-14T11:37:04.735Z,96268.59
2024-04-14T11:38:07.434Z,96256.31
2024-04-14T11:39:09.218Z,96266.94
2024-04-14T11:40:12.869Z,96259.06
2024-04-14T11:41:14.691Z,96258.88
2024-04-14T11:42:16.347Z,96256.91
2024-04-14T11:43:18.063Z,96261.81
2024-04-14T11:44:19.835Z,96255.63
2024-04-14T11:45:21.760Z,96254.84
2024-04-14T11:46:23.850Z,96265.41
2024-04-14T11:47:27.177Z,96251.94
2024-04-14T11:48:28.907Z,96261.47
2024-04-14T11:49:30.741Z,96258.28
2024-04-14T11:50:32.458Z,96258.66
2024-04-14T11:51:34.246Z,96255.47
2024-04-14T11:52:36.209Z,96258.19
2024-04-14T11:53:38.525Z,96248.94
2024-04-14T11:54:40.321Z,96248.13
2024-04-14T11:55:42.091Z,96253.38
2024-04-14T11:56:43.806Z,96250.94
2024-04-14T11:57:45.566Z,96244.53
2024-04-14T11:58:47.305Z,96253.84
2024-04-14T11:59:49.596Z,96238.69
2024-04-14T12:00:51.349Z,96247.06
2024-04-14T12:01:54.093Z,96245.03
2024-04-14T12:02:55.941Z,96247.06
2024-04-14T12:03:57.731Z,96235.81
2024-04-14T12:04:59.526Z,96241.91
2024-04-14T12:06:01.837Z,96236.38
2024-04-14T12:07:03.719Z,96232.47
2024-04-14T12:08:05.580Z,96236.06
2024-04-14T12:09:08.461Z,96236.00
2024-04-14T12:10:10.246Z,96238.38
2024-04-14T12:11:12.253Z,96231.59
2024-04-14T12:12:16.836Z,96234.00
2024-04-14T12:13:18.630Z,96241.63